Time;durP1;ratioP1;P1;durP2;ratioP2;P2;SDS_P1;SDS_P2;PMS_P1;PMS_P2;Temp;Humidity;BMP_temperature;BMP_pressure;BME280_temperature;BME280_humidity;BME280_pressure;Samples;Min_cycle;Max_cycle;Signal;HPM_P1;HPM_P2
2024/02/12 00:00:43;;;;;;;24.75;14.70;;;16.00;85.70;;;;;;4089892;28;20090;-47
2024/02/12 00:03:32;;;;;;;26.77;14.88;;;15.90;85.60;;;;;;4089850;28;20113;-45
2024/02/12 00:06:13;;;;;;;26.05;14.02;;;16.00;85.50;;;;;;4090344;28;20054;-47
2024/02/12 00:08:53;;;;;;;28.85;13.93;;;16.00;85.40;;;;;;4090063;28;20054;-47
2024/02/12 00:11:36;;;;;;;26.80;14.65;;;15.90;85.40;;;;;;4065958;28;20082;-47
2024/02/12 00:14:19;;;;;;;26.10;13.35;;;15.90;85.60;;;;;;4090191;28;20058;-47
2024/02/12 00:17:04;;;;;;;25.52;14.38;;;15.90;85.60;;;;;;4090245;28;20232;-49
2024/02/12 00:19:48;;;;;;;23.85;13.43;;;15.90;85.50;;;;;;4088886;28;20066;-50
2024/02/12 00:22:29;;;;;;;26.92;14.25;;;15.90;85.40;;;;;;4089673;28;20150;-53
2024/02/12 00:25:12;;;;;;;23.38;14.38;;;15.90;85.40;;;;;;4090572;28;20058;-49
2024/02/12 00:27:55;;;;;;;27.88;14.70;;;15.90;85.40;;;;;;4089952;28;20195;-53
2024/02/12 00:30:39;;;;;;;24.63;13.90;;;15.90;85.50;;;;;;4089757;28;20613;-53
2024/02/12 00:33:21;;;;;;;23.67;13.55;;;15.90;85.60;;;;;;4090357;28;20834;-51
2024/02/12 00:36:03;;;;;;;23.08;13.45;;;15.90;85.50;;;;;;4090422;28;20078;-52
2024/02/12 00:38:44;;;;;;;29.45;13.98;;;15.90;85.40;;;;;;4090338;28;20389;-52
2024/02/12 00:41:26;;;;;;;26.20;14.07;;;15.90;85.40;;;;;;4090406;28;20086;-49
2024/02/12 00:44:07;;;;;;;28.00;14.10;;;15.80;85.50;;;;;;4090083;28;20050;-48
2024/02/12 00:46:48;;;;;;;22.13;13.02;;;15.80;85.60;;;;;;4089575;28;20180;-49
2024/02/12 00:49:30;;;;;;;20.55;12.50;;;15.80;85.70;;;;;;4089935;28;20129;-51
2024/02/12 00:52:12;;;;;;;26.45;14.18;;;15.80;85.70;;;;;;4090126;28;20653;-47
2024/02/12 00:54:53;;;;;;;24.60;13.48;;;15.80;85.90;;;;;;4074618;29;20050;-47
2024/02/12 00:57:34;;;;;;;23.67;13.52;;;15.80;85.90;;;;;;4074080;29;20055;-49
2024/02/12 01:00:16;;;;;;;24.38;13.85;;;15.80;86.00;;;;;;4080770;28;20195;-49
2024/02/12 01:03:15;;;;;;;24.23;13.63;;;15.80;86.10;;;;;;4076917;29;20145;-48
2024/02/12 01:05:57;;;;;;;26.17;12.90;;;15.80;86.20;;;;;;4077285;28;20167;-49
2024/02/12 01:08:39;;;;;;;23.35;12.55;;;15.80;86.20;;;;;;4089257;28;20042;-47
2024/02/12 01:11:22;;;;;;;26.17;13.43;;;15.80;86.30;;;;;;4074026;29;20055;-48
2024/02/12 01:14:03;;;;;;;23.60;12.90;;;15.80;86.20;;;;;;4073974;29;20059;-50
2024/02/12 01:16:44;;;;;;;24.73;12.93;;;15.70;86.10;;;;;;4073797;29;20054;-47
2024/02/12 01:19:25;;;;;;;22.45;12.98;;;15.80;86.20;;;;;;4076453;29;20094;-48
2024/02/12 01:22:08;;;;;;;23.58;13.63;;;15.70;86.20;;;;;;4088602;28;20065;-50
2024/02/12 01:24:58;;;;;;;22.48;12.07;;;15.70;86.20;;;;;;4089187;28;20086;-47
2024/02/12 01:27:40;;;;;;;20.33;12.73;;;15.70;86.20;;;;;;4089070;28;20058;-52
2024/02/12 01:30:20;;;;;;;24.30;12.82;;;15.70;86.20;;;;;;4089199;28;20061;-53
2024/02/12 01:33:03;;;;;;;23.45;12.27;;;15.70;86.20;;;;;;4089312;28;20567;-50
2024/02/12 01:35:44;;;;;;;21.75;12.48;;;15.70;86.20;;;;;;4089504;28;20062;-49
2024/02/12 01:38:26;;;;;;;26.67;12.75;;;15.70;86.30;;;;;;4088940;28;20062;-50
2024/02/12 01:41:08;;;;;;;25.15;12.30;;;15.70;86.30;;;;;;4088555;28;20195;-49
2024/02/12 01:43:51;;;;;;;20.33;11.57;;;15.70;86.30;;;;;;4089631;28;20050;-49
2024/02/12 01:46:32;;;;;;;22.77;12.80;;;15.70;86.40;;;;;;4089383;28;20114;-54
2024/02/12 01:49:13;;;;;;;20.58;11.82;;;15.70;86.40;;;;;;4089100;28;20078;-48
2024/02/12 01:51:55;;;;;;;23.00;12.45;;;15.70;86.40;;;;;;4081513;28;20050;-48
2024/02/12 01:54:38;;;;;;;;;;;15.70;86.50;;;;;;4078100;28;20054;-48
2024/02/12 01:57:19;;;;;;;19.25;11.18;;;15.60;86.40;;;;;;4088270;28;19928;-50
2024/02/12 02:00:02;;;;;;;23.10;12.00;;;15.60;87.10;;;;;;4088334;28;20054;-48
2024/02/12 02:02:52;;;;;;;;;;;15.60;86.80;;;;;;4088365;28;20111;-44
2024/02/12 02:05:33;;;;;;;25.30;12.83;;;15.60;86.70;;;;;;4077065;28;19977;-49
2024/02/12 02:08:16;;;;;;;20.23;11.82;;;15.60;87.40;;;;;;4088338;28;20302;-51
2024/02/12 02:10:59;;;;;;;17.60;11.23;;;15.60;87.20;;;;;;4088632;28;20066;-48
2024/02/12 02:13:42;;;;;;;19.98;11.60;;;15.60;87.10;;;;;;4088405;28;20062;-48
2024/02/12 02:16:43;;;;;;;19.30;11.38;;;15.60;86.90;;;;;;4088083;28;20712;-51
2024/02/12 02:19:26;;;;;;;22.67;11.80;;;15.60;87.00;;;;;;4088597;28;20070;-49
2024/02/12 02:22:08;;;;;;;22.27;11.52;;;15.60;86.90;;;;;;4092180;28;20054;-48
2024/02/12 02:24:53;;;;;;;21.77;11.75;;;15.50;86.80;;;;;;4091622;28;20054;-46
2024/02/12 02:27:35;;;;;;;22.50;11.85;;;15.50;86.80;;;;;;4090677;28;20058;-47
2024/02/12 02:30:16;;;;;;;21.02;11.02;;;15.50;86.80;;;;;;4090679;28;20067;-44
2024/02/12 02:32:57;;;;;;;21.42;10.50;;;15.50;86.90;;;;;;4072614;29;20069;-42
2024/02/12 02:35:38;;;;;;;19.52;10.70;;;15.50;86.90;;;;;;4091377;28;20138;-44
2024/02/12 02:38:19;;;;;;;21.10;10.63;;;15.50;86.90;;;;;;4091694;28;20610;-44
2024/02/12 02:41:03;;;;;;;19.75;11.35;;;15.50;86.90;;;;;;4091748;28;20385;-45
2024/02/12 02:43:44;;;;;;;15.77;9.27;;;15.50;86.90;;;;;;4091932;28;20061;-44
2024/02/12 02:46:27;;;;;;;15.68;10.43;;;15.50;86.90;;;;;;4092297;29;20073;-43
2024/02/12 02:49:08;;;;;;;16.20;11.07;;;15.50;86.90;;;;;;4091484;28;20189;-46
2024/02/12 02:51:49;;;;;;;19.50;10.40;;;15.50;86.90;;;;;;4075598;29;20496;-45
2024/02/12 02:54:31;;;;;;;16.88;10.65;;;15.50;86.90;;;;;;4075399;29;20130;-43
2024/02/12 02:57:13;;;;;;;;;;;15.50;86.90;;;;;;4080688;29;20054;-43
2024/02/12 02:59:54;;;;;;;15.57;8.88;;;15.50;86.90;;;;;;4079300;28;19930;-44
2024/02/12 03:02:35;;;;;;;17.75;10.65;;;15.50;87.60;;;;;;4091593;28;20178;-43
2024/02/12 03:05:16;;;;;;;15.77;9.18;;;15.50;87.50;;;;;;4091051;28;20113;-47
2024/02/12 03:07:58;;;;;;;20.15;10.75;;;15.50;87.50;;;;;;4091353;28;20609;-43
2024/02/12 03:10:39;;;;;;;;;;;15.50;87.40;;;;;;4087183;28;20590;-44
2024/02/12 03:13:21;;;;;;;16.52;9.52;;;15.50;87.30;;;;;;4091200;28;20061;-43
2024/02/12 03:16:02;;;;;;;18.23;9.95;;;15.40;87.80;;;;;;4079356;29;20066;-45
2024/02/12 03:18:45;;;;;;;17.42;10.57;;;15.50;87.50;;;;;;4074980;29;20524;-44
2024/02/12 03:21:27;;;;;;;15.75;10.07;;;15.40;87.40;;;;;;4065899;28;20071;-45
2024/02/12 03:24:08;;;;;;;16.75;10.30;;;15.40;87.30;;;;;;4090905;28;20186;-43
2024/02/12 03:26:50;;;;;;;;;;;15.40;87.20;;;;;;4090067;28;20190;-43
2024/02/12 03:29:33;;;;;;;16.60;10.05;;;15.40;87.20;;;;;;4089487;28;19976;-43
2024/02/12 03:32:14;;;;;;;14.82;10.07;;;15.40;87.80;;;;;;4089492;28;20054;-43
2024/02/12 03:34:57;;;;;;;15.60;10.68;;;15.40;87.70;;;;;;4089754;28;20503;-42
2024/02/12 03:37:40;;;;;;;16.95;10.60;;;15.40;87.60;;;;;;4089410;28;20533;-43
2024/02/12 03:40:26;;;;;;;15.40;10.55;;;15.40;87.50;;;;;;4082231;28;20062;-43
2024/02/12 03:43:09;;;;;;;17.27;10.02;;;15.40;87.30;;;;;;4089834;28;20050;-45
2024/02/12 03:45:55;;;;;;;20.25;10.48;;;15.40;87.30;;;;;;4089800;28;20076;-44
2024/02/12 04:00:31;;;;;;;17.30;10.07;;;15.50;88.20;;;;;;4088683;28;20078;-44
2024/02/12 04:03:13;;;;;;;12.40;9.73;;;15.50;88.00;;;;;;4088493;28;20062;-43
2024/02/12 04:05:54;;;;;;;16.77;10.32;;;15.60;88.00;;;;;;4087911;28;20058;-44
2024/02/12 04:08:39;;;;;;;17.05;10.82;;;15.60;87.70;;;;;;4089782;28;20122;-44
2024/02/12 04:11:20;;;;;;;14.48;9.50;;;15.60;87.50;;;;;;4088858;28;20066;-43
2024/02/12 04:14:01;;;;;;;19.58;10.75;;;15.50;87.40;;;;;;4077614;28;20511;-44
2024/02/12 04:16:42;;;;;;;19.42;11.60;;;15.50;87.20;;;;;;4077074;29;20117;-43
2024/02/12 04:19:24;;;;;;;14.20;9.93;;;15.50;87.20;;;;;;4089223;28;20053;-43
2024/02/12 04:22:09;;;;;;;15.55;10.90;;;15.50;87.50;;;;;;4074029;29;20195;-43
2024/02/12 04:24:50;;;;;;;17.63;10.93;;;15.50;88.00;;;;;;4073938;29;20086;-44
2024/02/12 04:27:33;;;;;;;14.63;10.00;;;15.50;88.10;;;;;;4073547;29;20054;-48
2024/02/12 04:30:14;;;;;;;14.73;10.13;;;15.50;88.00;;;;;;4042138;29;1101444;-48
2024/02/12 04:32:58;;;;;;;14.25;10.20;;;15.60;88.20;;;;;;4090539;28;20074;-50
2024/02/12 04:35:41;;;;;;;14.95;9.93;;;15.60;88.50;;;;;;4089367;28;20094;-48
2024/02/12 04:38:21;;;;;;;18.40;10.15;;;15.80;88.40;;;;;;4073831;29;20532;-50
2024/02/12 04:41:05;;;;;;;15.55;10.57;;;15.90;87.90;;;;;;4085862;28;20062;-50
2024/02/12 04:43:47;;;;;;;18.10;11.20;;;15.90;87.50;;;;;;4088938;28;20206;-51
2024/02/12 04:46:28;;;;;;;16.52;10.70;;;16.00;87.10;;;;;;4089543;28;20184;-48
2024/02/12 04:49:09;;;;;;;15.80;10.95;;;16.00;86.70;;;;;;4089733;28;20070;-49
2024/02/12 04:51:52;;;;;;;16.15;10.85;;;16.10;86.60;;;;;;4073558;29;20500;-50
2024/02/12 04:54:34;;;;;;;14.88;9.90;;;16.10;86.50;;;;;;4073701;29;20111;-51
2024/02/12 04:57:15;;;;;;;15.55;10.40;;;16.10;86.30;;;;;;4086979;28;20416;-52
2024/02/12 04:59:56;;;;;;;15.85;11.32;;;16.00;86.40;;;;;;4089669;28;20082;-52
2024/02/12 05:02:38;;;;;;;16.33;10.25;;;16.00;86.60;;;;;;4089782;28;20059;-49
2024/02/12 05:05:19;;;;;;;15.75;10.40;;;16.10;86.60;;;;;;4080963;28;20396;-50
2024/02/12 05:08:04;;;;;;;16.25;10.65;;;16.10;86.40;;;;;;4089253;28;20054;-48
2024/02/12 05:10:45;;;;;;;15.52;11.20;;;16.10;86.30;;;;;;4088679;28;20534;-49
2024/02/12 05:13:27;;;;;;;16.25;10.52;;;16.10;86.20;;;;;;4088885;28;20073;-48
2024/02/12 05:16:08;;;;;;;14.68;9.18;;;16.10;86.20;;;;;;4089397;28;20685;-50
2024/02/12 05:24:48;;;;;;;17.38;10.88;;;16.10;87.50;;;;;;4072213;29;20078;-50
2024/02/12 05:27:29;;;;;;;16.27;10.50;;;16.20;87.20;;;;;;4073341;29;20059;-48
2024/02/12 05:30:11;;;;;;;16.48;10.77;;;16.20;86.20;;;;;;4076255;28;20062;-48
2024/02/12 05:32:52;;;;;;;16.05;9.65;;;16.20;85.90;;;;;;4076798;28;20106;-51
2024/02/12 05:35:33;;;;;;;16.30;10.20;;;16.20;85.80;;;;;;4089118;28;20058;-49
2024/02/12 05:38:14;;;;;;;15.90;10.50;;;16.30;86.00;;;;;;4083432;28;20495;-48
2024/02/12 05:40:57;;;;;;;12.88;9.45;;;16.30;86.10;;;;;;4088186;28;20082;-51
2024/02/12 05:43:38;;;;;;;17.92;10.80;;;16.30;85.90;;;;;;4088670;28;20515;-50
2024/02/12 05:46:19;;;;;;;15.93;10.43;;;16.30;85.80;;;;;;4089322;28;20058;-51
2024/02/12 05:49:01;;;;;;;18.85;10.40;;;16.30;85.60;;;;;;4088423;28;20081;-50
2024/02/12 05:51:43;;;;;;;15.35;9.82;;;16.30;85.60;;;;;;4088796;28;20491;-49
2024/02/12 05:54:23;;;;;;;15.68;9.93;;;16.30;85.70;;;;;;4088636;28;20138;-52
2024/02/12 05:57:09;;;;;;;16.23;9.43;;;16.40;85.60;;;;;;4088881;28;20062;-49
2024/02/12 05:59:50;;;;;;;17.30;10.55;;;16.40;85.40;;;;;;4088800;28;20142;-50
2024/02/12 06:02:31;;;;;;;17.85;10.73;;;16.40;85.30;;;;;;4073277;29;20177;-51
2024/02/12 06:05:12;;;;;;;16.02;10.25;;;16.40;85.30;;;;;;4072954;29;20192;-51
2024/02/12 06:07:53;;;;;;;;;;;16.40;85.30;;;;;;4069251;28;20054;-50
2024/02/12 06:10:34;;;;;;;16.42;10.82;;;16.40;85.40;;;;;;4087948;28;19934;-51
2024/02/12 06:13:18;;;;;;;18.27;10.20;;;16.40;85.30;;;;;;4077017;28;20098;-49
2024/02/12 06:16:00;;;;;;;17.45;10.50;;;16.40;85.10;;;;;;4088451;28;20058;-48
2024/02/12 06:18:41;;;;;;;18.45;10.52;;;16.40;85.10;;;;;;4089031;28;20133;-50
2024/02/12 06:21:23;;;;;;;19.35;11.35;;;16.40;85.20;;;;;;4087561;28;20054;-51
2024/02/12 06:24:04;;;;;;;17.98;10.77;;;16.30;86.20;;;;;;4081682;28;20122;-43
2024/02/12 06:26:45;;;;;;;;;;;16.30;85.40;;;;;;4089880;28;20134;-43
2024/02/12 06:29:27;;;;;;;16.80;11.50;;;16.20;85.50;;;;;;4089269;28;20458;-43
2024/02/12 06:32:14;;;;;;;19.90;12.18;;;16.20;85.90;;;;;;4088301;28;20098;-47
2024/02/12 06:34:55;;;;;;;18.98;11.43;;;16.20;86.10;;;;;;4088641;28;20054;-43
2024/02/12 06:37:38;;;;;;;19.58;11.43;;;16.20;86.00;;;;;;4089037;28;20126;-44
2024/02/12 06:40:20;;;;;;;16.88;11.18;;;16.30;85.90;;;;;;4088662;28;20054;-43
2024/02/12 06:43:03;;;;;;;19.83;11.68;;;16.30;85.50;;;;;;4081377;28;20701;-44
2024/02/12 06:45:48;;;;;;;17.15;10.73;;;16.30;85.30;;;;;;4087955;28;20566;-44
2024/02/12 06:48:29;;;;;;;14.93;10.10;;;16.30;85.30;;;;;;4072774;29;20130;-43
2024/02/12 06:51:10;;;;;;;18.10;11.07;;;16.40;85.60;;;;;;4081293;28;20845;-42
2024/02/12 06:54:05;;;;;;;17.15;10.88;;;16.40;85.30;;;;;;4087223;28;20112;-45
2024/02/12 06:56:48;;;;;;;19.02;12.00;;;16.50;85.10;;;;;;4087983;28;20049;-45
2024/02/12 06:59:29;;;;;;;18.38;11.48;;;16.50;85.00;;;;;;4087980;28;20124;-44
2024/02/12 07:02:12;;;;;;;21.48;12.60;;;16.60;84.70;;;;;;4085552;28;20510;-45
2024/02/12 07:04:55;;;;;;;23.23;12.40;;;16.60;84.70;;;;;;4072489;29;20071;-44
2024/02/12 07:07:36;;;;;;;19.75;11.82;;;16.60;84.70;;;;;;4084467;28;20400;-45
2024/02/12 07:10:17;;;;;;;17.50;11.07;;;16.60;84.50;;;;;;4090466;28;20062;-43
2024/02/12 07:12:58;;;;;;;20.70;11.93;;;16.60;84.30;;;;;;4075243;28;20079;-45
2024/02/12 07:15:39;;;;;;;22.00;11.98;;;16.60;84.20;;;;;;4096114;28;20062;-44
2024/02/12 07:18:22;;;;;;;21.90;12.70;;;16.60;84.10;;;;;;4091326;28;20428;-50
2024/02/12 07:21:03;;;;;;;17.25;11.80;;;16.60;84.20;;;;;;4090323;28;20050;-48
2024/02/12 07:23:47;;;;;;;21.67;12.43;;;16.50;84.30;;;;;;4091322;28;20062;-50
2024/02/12 07:26:28;;;;;;;17.75;10.60;;;16.50;84.40;;;;;;4079184;28;20102;-51
2024/02/12 07:29:09;;;;;;;21.45;11.45;;;16.40;84.50;;;;;;4088954;28;20067;-51
2024/02/12 07:31:50;;;;;;;15.60;10.23;;;16.40;84.80;;;;;;4081969;28;20058;-48
2024/02/12 07:34:33;;;;;;;21.98;12.65;;;16.30;84.70;;;;;;4091137;28;20396;-48
2024/02/12 07:37:14;;;;;;;18.55;11.38;;;16.40;84.50;;;;;;4091100;28;20058;-48
2024/02/12 07:39:58;;;;;;;22.67;13.90;;;16.50;84.30;;;;;;4090541;28;20388;-51
2024/02/12 07:42:40;;;;;;;20.35;11.02;;;16.50;83.90;;;;;;4090392;28;20135;-51
2024/02/12 07:45:21;;;;;;;19.13;11.48;;;16.60;83.40;;;;;;4079469;28;20058;-48
2024/02/12 07:48:03;;;;;;;20.55;11.80;;;16.50;82.20;;;;;;4078669;29;20190;-48
2024/02/12 07:50:46;;;;;;;22.58;12.95;;;16.50;82.00;;;;;;4090091;28;20101;-50
2024/02/12 07:53:29;;;;;;;23.83;11.02;;;16.50;82.40;;;;;;4073560;29;20717;-50
2024/02/12 07:56:13;;;;;;;19.33;11.02;;;16.60;81.60;;;;;;4074647;29;20265;-53
2024/02/12 07:58:54;;;;;;;21.10;12.95;;;16.60;80.80;;;;;;4074428;29;20039;-49
2024/02/12 08:01:35;;;;;;;18.90;10.38;;;16.60;80.00;;;;;;4090116;28;20046;-50
2024/02/12 08:04:16;;;;;;;21.95;11.95;;;16.60;79.30;;;;;;4084909;28;20059;-45
2024/02/12 08:06:58;;;;;;;23.80;12.50;;;16.70;79.10;;;;;;4082922;28;20062;-48
2024/02/12 08:09:39;;;;;;;19.27;12.38;;;16.70;78.60;;;;;;4089605;29;20082;-47
2024/02/12 08:12:20;;;;;;;17.33;9.43;;;16.70;78.10;;;;;;4074735;29;20063;-45
2024/02/12 08:15:01;;;;;;;20.13;12.97;;;16.70;77.70;;;;;;4062637;29;20063;-48
2024/02/12 08:17:45;;;;;;;25.27;12.20;;;16.70;77.20;;;;;;4073014;29;20077;-48
2024/02/12 08:20:26;;;;;;;20.63;12.75;;;16.70;77.40;;;;;;4084097;28;20408;-46
2024/02/12 08:23:09;;;;;;;20.23;12.07;;;16.60;78.20;;;;;;4078982;28;20130;-46
2024/02/12 08:25:52;;;;;;;23.45;11.88;;;16.60;77.10;;;;;;4076060;28;20098;-50
2024/02/12 08:28:33;;;;;;;23.67;11.20;;;16.50;77.30;;;;;;4074299;29;20070;-47
2024/02/12 08:31:18;;;;;;;21.95;13.30;;;16.40;77.70;;;;;;4073840;29;20058;-47
2024/02/12 08:33:59;;;;;;;20.77;12.13;;;16.40;78.00;;;;;;4084135;28;20070;-47
2024/02/12 08:36:43;;;;;;;26.70;12.10;;;16.30;78.50;;;;;;4089798;28;20582;-49
2024/02/12 08:39:26;;;;;;;21.08;12.13;;;16.30;78.70;;;;;;4089465;28;20583;-48
2024/02/12 08:42:07;;;;;;;19.45;11.75;;;16.20;79.10;;;;;;4085926;28;20190;-50
2024/02/12 08:44:49;;;;;;;19.33;11.70;;;16.20;79.80;;;;;;4089811;28;20050;-48
2024/02/12 08:47:31;;;;;;;20.92;11.80;;;16.20;79.90;;;;;;4089381;28;20412;-50
2024/02/12 08:50:11;;;;;;;17.08;10.88;;;16.30;79.60;;;;;;4088573;28;20117;-50
2024/02/12 08:52:53;;;;;;;22.48;11.77;;;16.30;79.30;;;;;;4089676;28;20125;-51
2024/02/12 08:55:37;;;;;;;20.02;12.05;;;16.30;79.10;;;;;;4088914;28;20054;-49
2024/02/12 08:58:18;;;;;;;18.52;10.77;;;16.30;79.10;;;;;;4087032;29;20066;-52
2024/02/12 09:00:59;;;;;;;19.63;12.15;;;16.30;79.00;;;;;;4086876;29;20475;-51
2024/02/12 09:03:59;;;;;;;21.52;13.07;;;16.30;79.20;;;;;;4088518;28;20106;-51
2024/02/12 09:06:41;;;;;;;24.00;12.40;;;16.30;79.20;;;;;;4089228;28;20062;-49
2024/02/12 09:09:22;;;;;;;23.08;13.02;;;16.20;79.40;;;;;;4089370;28;20065;-49
2024/02/12 09:12:05;;;;;;;20.77;11.93;;;16.20;79.60;;;;;;4087792;28;20083;-50
2024/02/12 09:14:46;;;;;;;20.80;11.55;;;16.10;79.80;;;;;;4081331;28;20058;-48
2024/02/12 09:17:27;;;;;;;17.95;11.30;;;16.10;79.70;;;;;;4095560;28;20178;-56
2024/02/12 09:20:14;;;;;;;17.58;9.82;;;16.20;80.00;;;;;;4076508;28;20053;-47
2024/02/12 09:22:56;;;;;;;22.10;12.18;;;16.20;80.10;;;;;;4088454;28;20051;-47
2024/02/12 09:25:37;;;;;;;19.35;11.48;;;16.20;79.20;;;;;;4088997;28;20701;-45
2024/02/12 09:28:20;;;;;;;19.08;12.00;;;16.20;79.10;;;;;;4088596;28;20191;-55
2024/02/12 09:31:01;;;;;;;17.25;10.68;;;16.20;79.00;;;;;;4064294;29;20054;-46
2024/02/12 09:33:45;;;;;;;24.67;11.20;;;16.20;78.90;;;;;;4073342;29;20409;-49
2024/02/12 09:36:26;;;;;;;17.65;10.07;;;16.20;78.90;;;;;;4057569;29;20103;-49
2024/02/12 09:39:08;;;;;;;16.48;10.40;;;16.20;78.70;;;;;;4065164;29;20568;-51
2024/02/12 09:41:50;;;;;;;16.88;9.52;;;16.10;79.20;;;;;;4073219;29;20062;-49
2024/02/12 09:44:34;;;;;;;19.75;10.93;;;16.20;79.30;;;;;;4072347;29;20186;-46
2024/02/12 09:47:17;;;;;;;17.65;11.40;;;16.10;78.50;;;;;;4085200;28;20082;-47
2024/02/12 09:49:59;;;;;;;18.08;8.88;;;16.10;78.40;;;;;;4074169;28;20094;-50
2024/02/12 09:52:43;;;;;;;15.27;9.43;;;16.10;78.20;;;;;;4072615;29;20147;-53
2024/02/12 09:55:26;;;;;;;15.65;8.50;;;16.10;78.10;;;;;;4071996;29;20062;-48
2024/02/12 09:58:07;;;;;;;14.18;9.25;;;16.20;77.60;;;;;;4070942;28;20106;-49
2024/02/12 10:00:50;;;;;;;15.00;8.07;;;16.20;77.50;;;;;;4080181;28;20062;-50
2024/02/12 10:03:51;;;;;;;16.90;8.45;;;16.30;77.90;;;;;;4064386;29;20063;-50
2024/02/12 10:06:56;;;;;;;15.73;8.63;;;16.30;78.20;;;;;;4069809;29;20074;-51
2024/02/12 10:09:46;;;;;;;13.75;7.32;;;16.30;78.60;;;;;;4075761;29;20066;-48
2024/02/12 10:12:52;;;;;;;19.45;8.25;;;16.30;78.80;;;;;;4076651;28;20079;-50
2024/02/12 10:15:55;;;;;;;15.00;7.50;;;16.30;79.70;;;;;;4069210;29;20411;-47
2024/02/12 10:18:58;;;;;;;14.52;7.47;;;16.40;80.00;;;;;;4058842;29;20055;-47
2024/02/12 10:21:59;;;;;;;13.73;7.07;;;16.50;78.80;;;;;;4059454;29;20054;-46
2024/02/12 10:25:03;;;;;;;14.43;6.65;;;16.50;77.90;;;;;;4058794;29;20054;-47
2024/02/12 10:28:05;;;;;;;14.60;6.25;;;16.60;77.30;;;;;;4069454;29;20059;-47
2024/02/12 10:31:10;;;;;;;11.10;6.10;;;16.60;76.60;;;;;;4085439;28;20106;-48
2024/02/12 10:34:12;;;;;;;10.10;6.03;;;16.70;76.00;;;;;;4085440;28;20066;-47
2024/02/12 10:37:17;;;;;;;10.68;5.95;;;16.70;75.30;;;;;;4069910;28;20050;-49
2024/02/12 10:40:29;;;;;;;11.77;5.75;;;16.70;74.80;;;;;;4090416;28;20066;-47
2024/02/12 10:43:32;;;;;;;10.73;5.93;;;16.70;74.50;;;;;;4078725;28;20189;-51
2024/02/12 10:46:35;;;;;;;8.13;4.90;;;16.70;74.50;;;;;;4085059;28;20525;-51
2024/02/12 10:49:38;;;;;;;15.40;6.60;;;16.70;74.50;;;;;;4070424;28;20054;-48
2024/02/12 10:52:41;;;;;;;8.48;5.72;;;16.60;74.50;;;;;;4079364;28;20054;-46
2024/02/12 10:55:43;;;;;;;10.25;5.97;;;16.50;75.00;;;;;;4078691;28;20078;-47
2024/02/12 10:58:25;;;;;;;11.13;5.43;;;16.50;75.30;;;;;;4088436;28;20079;-50
2024/02/12 11:01:06;;;;;;;8.60;5.20;;;16.40;75.40;;;;;;4088464;28;20062;-47
2024/02/12 11:03:51;;;;;;;13.13;4.68;;;16.30;75.80;;;;;;4087888;28;20491;-49
2024/02/12 11:06:40;;;;;;;8.65;5.03;;;16.30;75.90;;;;;;4087924;28;20106;-50
2024/02/12 11:09:31;;;;;;;9.55;4.90;;;16.30;76.00;;;;;;4088591;28;20050;-49
2024/02/12 11:12:22;;;;;;;9.15;5.43;;;16.30;75.70;;;;;;4080995;28;20062;-50
2024/02/12 11:15:10;;;;;;;8.20;4.72;;;16.20;75.40;;;;;;4088789;28;20062;-49
2024/02/12 11:17:51;;;;;;;8.60;5.65;;;16.20;75.80;;;;;;4088723;28;20057;-46
2024/02/12 11:20:33;;;;;;;8.70;4.55;;;16.20;75.80;;;;;;4092294;28;20090;-47
2024/02/12 11:23:21;;;;;;;10.15;4.30;;;16.10;75.70;;;;;;4088215;28;20066;-47
2024/02/12 11:26:04;;;;;;;7.40;3.35;;;16.10;75.60;;;;;;4069884;28;20050;-50
2024/02/12 11:28:54;;;;;;;9.45;4.57;;;16.10;75.70;;;;;;4088456;28;20062;-50
2024/02/12 11:31:37;;;;;;;9.82;3.97;;;16.00;75.70;;;;;;4076413;28;20070;-51
2024/02/12 11:34:20;;;;;;;10.38;4.13;;;16.00;75.70;;;;;;4088668;28;20066;-50
2024/02/12 11:37:03;;;;;;;7.82;3.72;;;16.00;75.50;;;;;;4103087;28;20380;-48
2024/02/12 11:39:57;;;;;;;7.38;4.22;;;16.00;75.40;;;;;;4103402;28;20408;-49
2024/02/12 11:42:43;;;;;;;7.65;4.18;;;16.10;76.00;;;;;;4101431;28;20495;-51
2024/02/12 11:45:25;;;;;;;6.18;3.55;;;16.10;74.80;;;;;;4091478;28;20476;-49
2024/02/12 11:48:10;;;;;;;12.40;4.13;;;16.10;74.70;;;;;;4088794;28;20051;-51
2024/02/12 11:50:55;;;;;;;7.97;3.78;;;16.10;74.60;;;;;;4088175;28;20094;-49
2024/02/12 11:53:39;;;;;;;7.72;3.78;;;16.10;74.50;;;;;;4092042;28;20399;-48
2024/02/12 11:56:21;;;;;;;4.93;3.50;;;16.10;75.40;;;;;;4076782;28;20062;-50
2024/02/12 11:59:04;;;;;;;3.97;2.33;;;16.10;74.50;;;;;;4088233;28;20073;-50
2024/02/12 12:01:47;;;;;;;4.25;2.55;;;16.00;74.40;;;;;;4088239;28;20062;-49
2024/02/12 12:04:34;;;;;;;6.90;3.38;;;16.00;74.40;;;;;;4088338;28;20054;-47
2024/02/12 12:07:15;;;;;;;4.75;2.40;;;16.00;74.40;;;;;;4091187;28;20059;-46
2024/02/12 12:10:05;;;;;;;6.18;3.00;;;15.90;74.20;;;;;;4087731;28;20114;-48
2024/02/12 12:12:47;;;;;;;9.27;3.30;;;15.90;74.10;;;;;;4090076;28;20053;-46
2024/02/12 12:15:35;;;;;;;4.18;2.42;;;15.90;74.20;;;;;;4093067;28;20086;-46
2024/02/12 12:18:19;;;;;;;5.53;2.83;;;15.80;74.20;;;;;;4088438;28;20191;-49
2024/02/12 12:21:00;;;;;;;;;;;15.80;74.30;;;;;;4085995;28;20058;-48
2024/02/12 12:23:41;;;;;;;3.17;2.35;;;15.80;74.50;;;;;;4108478;28;19936;-49
2024/02/12 12:26:25;;;;;;;5.95;3.17;;;15.70;74.70;;;;;;4087804;28;20073;-47
2024/02/12 12:29:06;;;;;;;3.50;2.78;;;15.70;74.80;;;;;;4094280;28;20081;-46
2024/02/12 12:31:47;;;;;;;8.98;3.22;;;15.70;75.20;;;;;;4085544;28;20081;-46
2024/02/12 12:34:28;;;;;;;7.80;3.80;;;15.70;75.40;;;;;;4072674;29;20059;-49
2024/02/12 12:37:12;;;;;;;8.40;3.50;;;15.60;75.40;;;;;;4072209;29;20054;-52
2024/02/12 12:39:54;;;;;;;5.45;2.72;;;15.60;75.60;;;;;;4075060;28;20527;-49
2024/02/12 12:42:38;;;;;;;3.42;2.70;;;15.60;75.70;;;;;;4071548;29;20055;-52
2024/02/12 12:45:21;;;;;;;7.18;2.60;;;15.60;75.80;;;;;;4072009;29;20078;-46
2024/02/12 12:48:12;;;;;;;2.95;2.42;;;15.60;75.70;;;;;;4071681;29;20051;-48
2024/02/12 12:50:53;;;;;;;4.78;2.50;;;15.60;75.60;;;;;;4071991;29;20054;-48
2024/02/12 12:53:37;;;;;;;6.72;3.00;;;15.50;75.40;;;;;;4071023;29;20055;-48
2024/02/12 12:56:20;;;;;;;4.93;3.13;;;15.50;75.30;;;;;;4084088;28;20062;-49
2024/02/12 12:59:05;;;;;;;7.88;2.78;;;15.50;75.50;;;;;;4086637;28;20062;-47
2024/02/12 13:01:46;;;;;;;9.48;4.07;;;15.50;75.80;;;;;;4073884;29;20453;-47
2024/02/12 13:04:28;;;;;;;5.45;2.40;;;15.50;75.90;;;;;;4070997;29;20501;-49
2024/02/12 13:07:12;;;;;;;8.00;3.38;;;15.50;76.00;;;;;;4070598;28;20056;-50
2024/02/12 13:09:54;;;;;;;9.65;3.20;;;15.50;76.10;;;;;;4059880;29;20225;-50
2024/02/12 13:12:38;;;;;;;5.30;2.90;;;15.50;76.20;;;;;;4071627;29;20062;-49
2024/02/12 13:15:20;;;;;;;7.78;2.65;;;15.40;76.20;;;;;;4084045;28;20079;-49
2024/02/12 13:18:16;;;;;;;4.45;2.90;;;15.40;76.20;;;;;;4070937;29;20563;-49
2024/02/12 13:20:58;;;;;;;3.05;2.25;;;15.40;76.30;;;;;;4078164;28;20051;-50
2024/02/12 13:23:39;;;;;;;9.98;3.50;;;15.40;76.40;;;;;;4070878;29;20067;-53
2024/02/12 13:26:21;;;;;;;8.95;2.53;;;15.40;76.60;;;;;;4071352;29;20086;-51
2024/02/12 13:29:06;;;;;;;;;;;15.40;76.80;;;;;;4079003;28;20054;-51
2024/02/12 13:31:48;;;;;;;5.75;2.60;;;15.40;76.80;;;;;;4074306;28;20004;-52
2024/02/12 13:34:29;;;;;;;6.47;2.53;;;15.30;76.70;;;;;;4070810;29;20063;-51
2024/02/12 13:37:11;;;;;;;8.98;3.03;;;15.30;76.60;;;;;;4072840;29;20187;-50
2024/02/12 13:39:53;;;;;;;6.22;2.47;;;15.30;77.20;;;;;;4074038;28;20187;-52
2024/02/12 13:42:34;;;;;;;5.75;2.40;;;15.30;76.70;;;;;;4064514;29;20134;-49
2024/02/12 13:45:15;;;;;;;7.65;2.45;;;15.30;77.50;;;;;;4072818;29;20057;-53
2024/02/12 13:48:02;;;;;;;6.18;2.83;;;15.30;76.60;;;;;;4074200;29;20046;-49
2024/02/12 13:50:43;;;;;;;4.30;2.58;;;15.30;76.70;;;;;;4072822;29;20070;-50
2024/02/12 13:53:25;;;;;;;;;;;15.30;76.60;;;;;;4073025;29;20188;-51
2024/02/12 13:56:06;;;;;;;6.00;2.75;;;15.20;76.50;;;;;;4072258;29;20415;-51
2024/02/12 13:58:47;;;;;;;4.65;2.58;;;15.20;76.60;;;;;;4057648;29;20107;-49
2024/02/12 14:01:30;;;;;;;8.75;3.60;;;15.20;76.50;;;;;;4072571;29;20062;-52
2024/02/12 14:04:21;;;;;;;4.75;2.72;;;15.20;76.50;;;;;;4081771;28;20094;-48
2024/02/12 14:07:02;;;;;;;6.20;2.78;;;15.20;76.50;;;;;;4070774;29;20073;-51
2024/02/12 14:09:43;;;;;;;6.32;3.05;;;15.20;76.50;;;;;;4060857;29;20054;-50
2024/02/12 14:12:26;;;;;;;10.07;2.88;;;15.20;76.50;;;;;;4072525;29;20056;-49
2024/02/12 14:15:08;;;;;;;6.88;2.83;;;15.20;76.50;;;;;;4059659;29;20564;-50
2024/02/12 14:17:53;;;;;;;4.80;2.42;;;15.20;76.40;;;;;;4075306;29;20058;-52